sensor_id;sensor_type;location;lat;lon;timestamp;temperature;humidity
76577;DHT22;65441;44.748;37.600;2023-07-13T00:00:31;21.82;85.14
76577;DHT22;65441;44.748;37.600;2023-07-13T00:02:59;21.74;84.77
76577;DHT22;65441;44.748;37.600;2023-07-13T00:05:27;21.69;84.87
76577;DHT22;65441;44.748;37.600;2023-07-13T00:07:56;21.50;84.26
76577;DHT22;65441;44.748;37.600;2023-07-13T00:10:24;21.29;84.57
76577;DHT22;65441;44.748;37.600;2023-07-13T00:12:54;21.27;84.42
76577;DHT22;65441;44.748;37.600;2023-07-13T00:15:25;21.16;84.26
76577;DHT22;65441;44.748;37.600;2023-07-13T00:17:54;21.09;84.33
76577;DHT22;65441;44.748;37.600;2023-07-13T00:20:24;21.02;85.00
76577;DHT22;65441;44.748;37.600;2023-07-13T00:22:52;20.98;84.64
76577;DHT22;65441;44.748;37.600;2023-07-13T00:25:21;21.09;84.44
76577;DHT22;65441;44.748;37.600;2023-07-13T00:27:52;21.15;83.97
76577;DHT22;65441;44.748;37.600;2023-07-13T00:30:21;20.94;83.71
76577;DHT22;65441;44.748;37.600;2023-07-13T00:32:49;20.91;85.31
76577;DHT22;65441;44.748;37.600;2023-07-13T00:35:17;20.72;84.66
76577;DHT22;65441;44.748;37.600;2023-07-13T00:37:45;20.77;87.71
76577;DHT22;65441;44.748;37.600;2023-07-13T00:40:15;20.88;84.22
76577;DHT22;65441;44.748;37.600;2023-07-13T00:42:44;20.94;84.05
76577;DHT22;65441;44.748;37.600;2023-07-13T00:48:24;20.90;86.77
76577;DHT22;65441;44.748;37.600;2023-07-13T00:50:56;20.87;85.92
76577;DHT22;65441;44.748;37.600;2023-07-13T00:53:27;20.77;85.53
76577;DHT22;65441;44.748;37.600;2023-07-13T00:55:57;20.66;85.29
76577;DHT22;65441;44.748;37.600;2023-07-13T00:58:27;20.64;84.75
76577;DHT22;65441;44.748;37.600;2023-07-13T01:00:58;20.74;85.78
76577;DHT22;65441;44.748;37.600;2023-07-13T01:03:27;20.58;84.99
76577;DHT22;65441;44.748;37.600;2023-07-13T01:05:55;20.44;84.88
76577;DHT22;65441;44.748;37.600;2023-07-13T01:08:24;20.42;85.58
76577;DHT22;65441;44.748;37.600;2023-07-13T01:10:53;20.47;85.84
76577;DHT22;65441;44.748;37.600;2023-07-13T01:13:22;20.39;85.06
76577;DHT22;65441;44.748;37.600;2023-07-13T01:15:51;20.34;86.19
76577;DHT22;65441;44.748;37.600;2023-07-13T01:18:24;20.51;87.10
76577;DHT22;65441;44.748;37.600;2023-07-13T01:20:58;20.62;87.70
76577;DHT22;65441;44.748;37.600;2023-07-13T01:23:27;20.58;85.64
76577;DHT22;65441;44.748;37.600;2023-07-13T01:25:56;20.48;85.84
76577;DHT22;65441;44.748;37.600;2023-07-13T01:28:25;20.37;86.03
76577;DHT22;65441;44.748;37.600;2023-07-13T01:30:55;20.43;85.93
76577;DHT22;65441;44.748;37.600;2023-07-13T01:33:24;20.46;85.97
76577;DHT22;65441;44.748;37.600;2023-07-13T01:35:52;20.50;85.80
76577;DHT22;65441;44.748;37.600;2023-07-13T01:38:23;20.47;85.72
76577;DHT22;65441;44.748;37.600;2023-07-13T01:40:52;20.46;87.86
76577;DHT22;65441;44.748;37.600;2023-07-13T01:43:20;20.49;86.43
76577;DHT22;65441;44.748;37.600;2023-07-13T01:45:48;20.66;85.86
76577;DHT22;65441;44.748;37.600;2023-07-13T01:48:16;20.43;84.17
76577;DHT22;65441;44.748;37.600;2023-07-13T01:50:44;20.27;85.28
76577;DHT22;65441;44.748;37.600;2023-07-13T01:53:12;20.30;85.26
76577;DHT22;65441;44.748;37.600;2023-07-13T01:55:44;20.34;83.59
76577;DHT22;65441;44.748;37.600;2023-07-13T01:58:12;20.40;84.75
76577;DHT22;65441;44.748;37.600;2023-07-13T02:00:40;20.27;84.03
76577;DHT22;65441;44.748;37.600;2023-07-13T02:03:08;20.10;83.97
76577;DHT22;65441;44.748;37.600;2023-07-13T02:05:36;20.20;85.74
76577;DHT22;65441;44.748;37.600;2023-07-13T02:08:04;20.04;83.69
76577;DHT22;65441;44.748;37.600;2023-07-13T02:10:32;20.03;83.50
76577;DHT22;65441;44.748;37.600;2023-07-13T02:13:04;19.89;84.40
76577;DHT22;65441;44.748;37.600;2023-07-13T02:15:32;19.85;84.90
76577;DHT22;65441;44.748;37.600;2023-07-13T02:18:01;19.86;85.29
76577;DHT22;65441;44.748;37.600;2023-07-13T02:20:30;19.79;84.76
76577;DHT22;65441;44.748;37.600;2023-07-13T02:22:58;19.79;85.18
76577;DHT22;65441;44.748;37.600;2023-07-13T02:25:26;19.83;85.51
76577;DHT22;65441;44.748;37.600;2023-07-13T02:27:54;19.86;85.59
76577;DHT22;65441;44.748;37.600;2023-07-13T02:30:23;19.72;85.80
76577;DHT22;65441;44.748;37.600;2023-07-13T02:32:54;19.67;86.26
76577;DHT22;65441;44.748;37.600;2023-07-13T02:35:22;19.69;86.41
76577;DHT22;65441;44.748;37.600;2023-07-13T02:37:50;19.74;86.49
76577;DHT22;65441;44.748;37.600;2023-07-13T02:40:19;19.94;86.83
76577;DHT22;65441;44.748;37.600;2023-07-13T02:42:47;19.89;85.38
76577;DHT22;65441;44.748;37.600;2023-07-13T02:45:15;20.03;87.69
76577;DHT22;65441;44.748;37.600;2023-07-13T02:47:45;20.20;86.72
76577;DHT22;65441;44.748;37.600;2023-07-13T02:50:13;20.30;85.69
76577;DHT22;65441;44.748;37.600;2023-07-13T02:52:41;20.30;85.05
76577;DHT22;65441;44.748;37.600;2023-07-13T02:55:09;20.31;85.31
76577;DHT22;65441;44.748;37.600;2023-07-13T02:57:37;20.26;86.24
76577;DHT22;65441;44.748;37.600;2023-07-13T03:00:07;20.29;86.72
76577;DHT22;65441;44.748;37.600;2023-07-13T03:02:36;20.42;86.33
76577;DHT22;65441;44.748;37.600;2023-07-13T03:05:08;20.37;87.05
76577;DHT22;65441;44.748;37.600;2023-07-13T03:07:39;20.44;87.83
76577;DHT22;65441;44.748;37.600;2023-07-13T03:10:09;20.69;86.98
76577;DHT22;65441;44.748;37.600;2023-07-13T03:12:44;20.73;85.26
76577;DHT22;65441;44.748;37.600;2023-07-13T03:15:21;20.87;85.58
76577;DHT22;65441;44.748;37.600;2023-07-13T03:17:52;21.18;84.73
76577;DHT22;65441;44.748;37.600;2023-07-13T03:20:22;21.18;84.29
76577;DHT22;65441;44.748;37.600;2023-07-13T03:22:51;21.32;84.78
76577;DHT22;65441;44.748;37.600;2023-07-13T03:25:20;21.63;84.07
76577;DHT22;65441;44.748;37.600;2023-07-13T03:27:49;21.82;83.59
76577;DHT22;65441;44.748;37.600;2023-07-13T03:30:17;21.95;83.89
76577;DHT22;65441;44.748;37.600;2023-07-13T03:32:45;22.25;82.08
76577;DHT22;65441;44.748;37.600;2023-07-13T03:35:14;22.65;82.49
76577;DHT22;65441;44.748;37.600;2023-07-13T03:37:43;23.00;79.60
76577;DHT22;65441;44.748;37.600;2023-07-13T03:40:17;23.22;80.07
76577;DHT22;65441;44.748;37.600;2023-07-13T03:42:46;23.44;79.67
76577;DHT22;65441;44.748;37.600;2023-07-13T03:45:17;23.72;77.78
76577;DHT22;65441;44.748;37.600;2023-07-13T03:47:46;23.99;78.98
76577;DHT22;65441;44.748;37.600;2023-07-13T03:50:18;24.29;77.49
76577;DHT22;65441;44.748;37.600;2023-07-13T03:52:48;24.39;76.85
76577;DHT22;65441;44.748;37.600;2023-07-13T03:55:18;24.40;76.25
76577;DHT22;65441;44.748;37.600;2023-07-13T03:57:46;24.48;76.82
76577;DHT22;65441;44.748;37.600;2023-07-13T04:00:15;24.72;75.87
76577;DHT22;65441;44.748;37.600;2023-07-13T04:02:43;24.92;75.90
76577;DHT22;65441;44.748;37.600;2023-07-13T04:05:13;25.12;74.86
76577;DHT22;65441;44.748;37.600;2023-07-13T04:07:41;24.95;74.78
76577;DHT22;65441;44.748;37.600;2023-07-13T04:10:12;24.95;74.68
76577;DHT22;65441;44.748;37.600;2023-07-13T04:12:40;24.97;74.64
76577;DHT22;65441;44.748;37.600;2023-07-13T04:15:08;24.55;75.89
76577;DHT22;65441;44.748;37.600;2023-07-13T04:17:37;24.94;75.35
76577;DHT22;65441;44.748;37.600;2023-07-13T04:20:06;25.21;74.00
76577;DHT22;65441;44.748;37.600;2023-07-13T04:22:34;25.52;72.66
76577;DHT22;65441;44.748;37.600;2023-07-13T04:25:02;25.71;72.54
76577;DHT22;65441;44.748;37.600;2023-07-13T04:27:33;25.94;70.64
76577;DHT22;65441;44.748;37.600;2023-07-13T04:30:01;26.07;70.09
76577;DHT22;65441;44.748;37.600;2023-07-13T04:32:29;26.04;69.42
76577;DHT22;65441;44.748;37.600;2023-07-13T04:34:58;26.31;68.51
76577;DHT22;65441;44.748;37.600;2023-07-13T04:37:26;26.51;69.90
76577;DHT22;65441;44.748;37.600;2023-07-13T04:39:55;26.51;67.50
76577;DHT22;65441;44.748;37.600;2023-07-13T04:42:23;26.42;68.06
76577;DHT22;65441;44.748;37.600;2023-07-13T04:44:53;26.32;68.59
76577;DHT22;65441;44.748;37.600;2023-07-13T04:47:21;26.27;68.43
76577;DHT22;65441;44.748;37.600;2023-07-13T04:49:49;26.32;70.94
76577;DHT22;65441;44.748;37.600;2023-07-13T04:52:17;25.77;69.71
76577;DHT22;65441;44.748;37.600;2023-07-13T04:54:46;25.61;70.03
76577;DHT22;65441;44.748;37.600;2023-07-13T04:57:14;25.47;70.05
76577;DHT22;65441;44.748;37.600;2023-07-13T04:59:42;25.20;70.77
76577;DHT22;65441;44.748;37.600;2023-07-13T05:02:12;25.04;71.58
76577;DHT22;65441;44.748;37.600;2023-07-13T05:04:43;24.90;72.13
76577;DHT22;65441;44.748;37.600;2023-07-13T05:07:13;25.37;71.90
76577;DHT22;65441;44.748;37.600;2023-07-13T05:09:42;25.77;70.47
76577;DHT22;65441;44.748;37.600;2023-07-13T05:12:10;26.10;67.95
76577;DHT22;65441;44.748;37.600;2023-07-13T05:14:38;26.33;67.39
76577;DHT22;65441;44.748;37.600;2023-07-13T05:17:08;26.09;67.70
76577;DHT22;65441;44.748;37.600;2023-07-13T05:19:38;26.15;68.41
76577;DHT22;65441;44.748;37.600;2023-07-13T05:22:06;26.13;68.01
76577;DHT22;65441;44.748;37.600;2023-07-13T05:24:34;26.50;66.69
76577;DHT22;65441;44.748;37.600;2023-07-13T05:27:10;26.77;65.08
76577;DHT22;65441;44.748;37.600;2023-07-13T05:29:38;27.12;65.20
76577;DHT22;65441;44.748;37.600;2023-07-13T05:32:06;27.44;64.18
76577;DHT22;65441;44.748;37.600;2023-07-13T05:34:37;27.58;63.92
76577;DHT22;65441;44.748;37.600;2023-07-13T05:37:08;27.78;62.37
76577;DHT22;65441;44.748;37.600;2023-07-13T05:39:36;27.95;62.28
76577;DHT22;65441;44.748;37.600;2023-07-13T05:42:04;27.65;62.68
76577;DHT22;65441;44.748;37.600;2023-07-13T05:44:33;28.10;61.96
76577;DHT22;65441;44.748;37.600;2023-07-13T05:47:02;28.01;61.92
76577;DHT22;65441;44.748;37.600;2023-07-13T05:49:30;28.13;62.82
76577;DHT22;65441;44.748;37.600;2023-07-13T05:51:58;28.11;59.54
76577;DHT22;65441;44.748;37.600;2023-07-13T05:54:28;28.12;59.80
76577;DHT22;65441;44.748;37.600;2023-07-13T05:56:59;28.12;60.36
76577;DHT22;65441;44.748;37.600;2023-07-13T05:59:27;28.08;59.23
76577;DHT22;65441;44.748;37.600;2023-07-13T06:01:55;28.20;60.00
76577;DHT22;65441;44.748;37.600;2023-07-13T06:04:26;28.50;58.92
76577;DHT22;65441;44.748;37.600;2023-07-13T06:06:54;28.27;60.53
76577;DHT22;65441;44.748;37.600;2023-07-13T06:09:23;27.89;61.53
76577;DHT22;65441;44.748;37.600;2023-07-13T06:11:52;27.79;61.85
76577;DHT22;65441;44.748;37.600;2023-07-13T06:14:21;27.97;61.63
76577;DHT22;65441;44.748;37.600;2023-07-13T06:16:50;27.91;59.77
76577;DHT22;65441;44.748;37.600;2023-07-13T06:19:18;27.91;60.06
76577;DHT22;65441;44.748;37.600;2023-07-13T06:21:49;28.29;59.99
76577;DHT22;65441;44.748;37.600;2023-07-13T06:24:17;28.21;58.87
76577;DHT22;65441;44.748;37.600;2023-07-13T06:26:45;28.53;59.45
76577;DHT22;65441;44.748;37.600;2023-07-13T06:29:15;28.70;56.40
76577;DHT22;65441;44.748;37.600;2023-07-13T06:31:44;28.10;58.64
76577;DHT22;65441;44.748;37.600;2023-07-13T06:34:12;27.42;61.47
76577;DHT22;65441;44.748;37.600;2023-07-13T06:36:40;27.04;63.50
76577;DHT22;65441;44.748;37.600;2023-07-13T06:39:08;26.78;64.79
76577;DHT22;65441;44.748;37.600;2023-07-13T06:41:36;27.15;65.24
76577;DHT22;65441;44.748;37.600;2023-07-13T06:44:10;27.61;63.34
76577;DHT22;65441;44.748;37.600;2023-07-13T06:46:40;28.12;61.05
76577;DHT22;65441;44.748;37.600;2023-07-13T06:49:09;28.49;58.00
76577;DHT22;65441;44.748;37.600;2023-07-13T06:51:37;28.91;58.68
76577;DHT22;65441;44.748;37.600;2023-07-13T06:54:05;28.79;57.10
76577;DHT22;65441;44.748;37.600;2023-07-13T06:56:33;28.69;58.68
76577;DHT22;65441;44.748;37.600;2023-07-13T06:59:02;29.04;58.79
76577;DHT22;65441;44.748;37.600;2023-07-13T07:01:30;29.17;57.18
76577;DHT22;65441;44.748;37.600;2023-07-13T07:04:00;28.71;58.34
76577;DHT22;65441;44.748;37.600;2023-07-13T07:06:28;28.37;59.83
76577;DHT22;65441;44.748;37.600;2023-07-13T07:08:57;28.74;57.97
76577;DHT22;65441;44.748;37.600;2023-07-13T07:11:25;28.92;56.59
76577;DHT22;65441;44.748;37.600;2023-07-13T07:13:54;28.90;57.40
76577;DHT22;65441;44.748;37.600;2023-07-13T07:16:25;28.60;58.32
76577;DHT22;65441;44.748;37.600;2023-07-13T07:18:53;28.37;59.81
76577;DHT22;65441;44.748;37.600;2023-07-13T07:21:23;27.86;60.86
76577;DHT22;65441;44.748;37.600;2023-07-13T07:23:52;27.75;61.25
76577;DHT22;65441;44.748;37.600;2023-07-13T07:26:20;27.79;60.49
76577;DHT22;65441;44.748;37.600;2023-07-13T07:28:49;27.98;61.12
76577;DHT22;65441;44.748;37.600;2023-07-13T07:31:17;28.32;58.46
76577;DHT22;65441;44.748;37.600;2023-07-13T07:33:45;28.48;57.74
76577;DHT22;65441;44.748;37.600;2023-07-13T07:36:14;28.38;59.00
76577;DHT22;65441;44.748;37.600;2023-07-13T07:38:44;28.98;57.89
76577;DHT22;65441;44.748;37.600;2023-07-13T07:41:13;28.61;58.21
76577;DHT22;65441;44.748;37.600;2023-07-13T07:43:45;28.73;59.79
76577;DHT22;65441;44.748;37.600;2023-07-13T07:46:13;28.84;58.55
76577;DHT22;65441;44.748;37.600;2023-07-13T07:48:43;29.11;58.58
76577;DHT22;65441;44.748;37.600;2023-07-13T07:51:11;29.39;57.42
76577;DHT22;65441;44.748;37.600;2023-07-13T07:53:40;29.06;57.20
76577;DHT22;65441;44.748;37.600;2023-07-13T07:56:09;28.99;57.61
76577;DHT22;65441;44.748;37.600;2023-07-13T07:58:40;28.82;57.73
76577;DHT22;65441;44.748;37.600;2023-07-13T08:01:08;28.23;59.49
76577;DHT22;65441;44.748;37.600;2023-07-13T08:03:37;28.00;60.86
76577;DHT22;65441;44.748;37.600;2023-07-13T08:06:06;27.79;61.62
76577;DHT22;65441;44.748;37.600;2023-07-13T08:08:34;28.37;61.59
76577;DHT22;65441;44.748;37.600;2023-07-13T08:11:04;28.41;60.42
76577;DHT22;65441;44.748;37.600;2023-07-13T08:13:34;28.78;59.56
76577;DHT22;65441;44.748;37.600;2023-07-13T08:16:04;28.05;59.98
76577;DHT22;65441;44.748;37.600;2023-07-13T08:18:33;28.21;60.31
76577;DHT22;65441;44.748;37.600;2023-07-13T08:21:04;28.37;59.55
76577;DHT22;65441;44.748;37.600;2023-07-13T08:23:32;28.73;58.64
76577;DHT22;65441;44.748;37.600;2023-07-13T08:26:01;28.74;59.62
76577;DHT22;65441;44.748;37.600;2023-07-13T08:28:31;28.35;59.36
76577;DHT22;65441;44.748;37.600;2023-07-13T08:31:05;28.28;59.76
76577;DHT22;65441;44.748;37.600;2023-07-13T08:33:37;28.30;58.67
76577;DHT22;65441;44.748;37.600;2023-07-13T08:36:08;28.17;60.17
76577;DHT22;65441;44.748;37.600;2023-07-13T08:38:36;28.25;59.44
76577;DHT22;65441;44.748;37.600;2023-07-13T08:41:15;28.06;58.84
76577;DHT22;65441;44.748;37.600;2023-07-13T08:43:44;28.54;62.15
76577;DHT22;65441;44.748;37.600;2023-07-13T08:46:17;29.13;58.15
76577;DHT22;65441;44.748;37.600;2023-07-13T08:48:48;28.85;56.94
76577;DHT22;65441;44.748;37.600;2023-07-13T08:51:27;28.54;57.67
76577;DHT22;65441;44.748;37.600;2023-07-13T08:54:01;28.76;57.61
76577;DHT22;65441;44.748;37.600;2023-07-13T08:56:31;28.97;60.71
76577;DHT22;65441;44.748;37.600;2023-07-13T08:59:09;29.28;57.49
76577;DHT22;65441;44.748;37.600;2023-07-13T09:01:55;29.45;57.17
76577;DHT22;65441;44.748;37.600;2023-07-13T09:04:30;29.16;57.79
76577;DHT22;65441;44.748;37.600;2023-07-13T09:07:07;28.55;58.17
76577;DHT22;65441;44.748;37.600;2023-07-13T09:09:50;27.90;60.70
76577;DHT22;65441;44.748;37.600;2023-07-13T09:12:27;28.50;61.17
76577;DHT22;65441;44.748;37.600;2023-07-13T09:14:59;28.65;59.29
76577;DHT22;65441;44.748;37.600;2023-07-13T09:17:41;28.31;59.51
76577;DHT22;65441;44.748;37.600;2023-07-13T09:20:17;28.35;60.24
76577;DHT22;65441;44.748;37.600;2023-07-13T09:22:50;28.31;59.79
76577;DHT22;65441;44.748;37.600;2023-07-13T09:25:25;28.30;61.61
76577;DHT22;65441;44.748;37.600;2023-07-13T09:27:58;28.75;60.80
76577;DHT22;65441;44.748;37.600;2023-07-13T09:30:33;29.05;59.28
76577;DHT22;65441;44.748;37.600;2023-07-13T09:33:06;29.41;59.54
76577;DHT22;65441;44.748;37.600;2023-07-13T09:35:35;29.27;57.28
76577;DHT22;65441;44.748;37.600;2023-07-13T09:38:11;28.64;60.44
76577;DHT22;65441;44.748;37.600;2023-07-13T09:40:48;28.75;59.32
76577;DHT22;65441;44.748;37.600;2023-07-13T09:43:19;29.27;60.37
76577;DHT22;65441;44.748;37.600;2023-07-13T09:45:50;29.44;58.96
76577;DHT22;65441;44.748;37.600;2023-07-13T09:48:20;29.07;57.67
76577;DHT22;65441;44.748;37.600;2023-07-13T09:50:55;28.82;55.71
76577;DHT22;65441;44.748;37.600;2023-07-13T09:53:32;28.87;58.91
76577;DHT22;65441;44.748;37.600;2023-07-13T09:56:01;29.19;56.28
76577;DHT22;65441;44.748;37.600;2023-07-13T09:58:30;29.45;56.77
76577;DHT22;65441;44.748;37.600;2023-07-13T10:01:02;29.34;53.57
76577;DHT22;65441;44.748;37.600;2023-07-13T10:03:34;29.59;57.42
76577;DHT22;65441;44.748;37.600;2023-07-13T10:06:15;29.15;57.00
76577;DHT22;65441;44.748;37.600;2023-07-13T10:08:45;28.80;57.48
76577;DHT22;65441;44.748;37.600;2023-07-13T10:11:21;28.79;59.68
76577;DHT22;65441;44.748;37.600;2023-07-13T10:13:52;29.01;60.80
76577;DHT22;65441;44.748;37.600;2023-07-13T10:16:25;28.94;57.49
76577;DHT22;65441;44.748;37.600;2023-07-13T10:18:58;29.26;56.22
76577;DHT22;65441;44.748;37.600;2023-07-13T10:21:33;29.36;56.26
76577;DHT22;65441;44.748;37.600;2023-07-13T10:24:10;28.82;55.07
76577;DHT22;65441;44.748;37.600;2023-07-13T10:26:46;28.86;57.57
76577;DHT22;65441;44.748;37.600;2023-07-13T10:29:16;29.22;55.33
76577;DHT22;65441;44.748;37.600;2023-07-13T10:31:45;29.59;55.56
76577;DHT22;65441;44.748;37.600;2023-07-13T10:34:16;29.96;54.25
76577;DHT22;65441;44.748;37.600;2023-07-13T10:36:45;29.81;49.79
76577;DHT22;65441;44.748;37.600;2023-07-13T10:39:19;29.62;51.90
76577;DHT22;65441;44.748;37.600;2023-07-13T10:41:55;29.01;53.42
76577;DHT22;65441;44.748;37.600;2023-07-13T10:44:28;28.70;56.22
76577;DHT22;65441;44.748;37.600;2023-07-13T10:47:00;28.98;54.81
76577;DHT22;65441;44.748;37.600;2023-07-13T10:49:37;29.08;52.01
76577;DHT22;65441;44.748;37.600;2023-07-13T10:52:42;29.21;53.94
76577;DHT22;65441;44.748;37.600;2023-07-13T10:55:35;29.05;56.86
76577;DHT22;65441;44.748;37.600;2023-07-13T10:58:14;29.36;51.17
76577;DHT22;65441;44.748;37.600;2023-07-13T11:01:03;29.39;51.26
76577;DHT22;65441;44.748;37.600;2023-07-13T11:03:34;29.34;51.89
76577;DHT22;65441;44.748;37.600;2023-07-13T11:06:15;29.56;51.70
76577;DHT22;65441;44.748;37.600;2023-07-13T11:08:54;29.45;50.66
76577;DHT22;65441;44.748;37.600;2023-07-13T11:11:36;29.32;53.11
76577;DHT22;65441;44.748;37.600;2023-07-13T11:14:27;29.53;55.22
76577;DHT22;65441;44.748;37.600;2023-07-13T11:16:57;29.87;52.96
76577;DHT22;65441;44.748;37.600;2023-07-13T11:19:41;29.86;52.16
76577;DHT22;65441;44.748;37.600;2023-07-13T11:22:15;29.77;54.62
76577;DHT22;65441;44.748;37.600;2023-07-13T11:24:54;29.68;51.53
76577;DHT22;65441;44.748;37.600;2023-07-13T11:27:37;29.43;55.27
76577;DHT22;65441;44.748;37.600;2023-07-13T11:30:24;29.39;53.02
76577;DHT22;65441;44.748;37.600;2023-07-13T11:35:57;29.00;55.16
76577;DHT22;65441;44.748;37.600;2023-07-13T11:38:35;29.33;56.36
76577;DHT22;65441;44.748;37.600;2023-07-13T11:41:10;29.35;54.48
76577;DHT22;65441;44.748;37.600;2023-07-13T11:43:45;29.41;54.81
76577;DHT22;65441;44.748;37.600;2023-07-13T11:46:23;29.34;56.44
76577;DHT22;65441;44.748;37.600;2023-07-13T11:48:52;29.16;55.67
76577;DHT22;65441;44.748;37.600;2023-07-13T11:51:23;29.01;52.74
76577;DHT22;65441;44.748;37.600;2023-07-13T11:53:55;28.79;55.50
76577;DHT22;65441;44.748;37.600;2023-07-13T11:56:26;28.97;55.66
76577;DHT22;65441;44.748;37.600;2023-07-13T11:59:05;28.95;56.15
76577;DHT22;65441;44.748;37.600;2023-07-13T12:01:34;28.83;54.82
76577;DHT22;65441;44.748;37.600;2023-07-13T12:04:05;28.74;54.94
76577;DHT22;65441;44.748;37.600;2023-07-13T12:06:36;28.98;54.21
76577;DHT22;65441;44.748;37.600;2023-07-13T12:09:12;29.17;54.25
76577;DHT22;65441;44.748;37.600;2023-07-13T12:11:45;29.18;53.84
76577;DHT22;65441;44.748;37.600;2023-07-13T12:14:18;29.17;54.35
76577;DHT22;65441;44.748;37.600;2023-07-13T12:16:48;29.15;53.99
76577;DHT22;65441;44.748;37.600;2023-07-13T12:22:28;29.01;54.36
76577;DHT22;65441;44.748;37.600;2023-07-13T12:24:58;29.17;53.50
76577;DHT22;65441;44.748;37.600;2023-07-13T12:27:28;29.32;53.73
76577;DHT22;65441;44.748;37.600;2023-07-13T12:30:00;29.12;52.18
76577;DHT22;65441;44.748;37.600;2023-07-13T12:32:29;29.27;52.35
76577;DHT22;65441;44.748;37.600;2023-07-13T12:35:12;28.99;51.87
76577;DHT22;65441;44.748;37.600;2023-07-13T12:37:45;28.95;52.48
76577;DHT22;65441;44.748;37.600;2023-07-13T12:40:19;28.99;52.97
76577;DHT22;65441;44.748;37.600;2023-07-13T12:42:49;29.26;54.63
76577;DHT22;65441;44.748;37.600;2023-07-13T12:45:21;29.21;51.76
76577;DHT22;65441;44.748;37.600;2023-07-13T12:47:53;29.12;55.05
76577;DHT22;65441;44.748;37.600;2023-07-13T12:50:23;29.02;52.07
76577;DHT22;65441;44.748;37.600;2023-07-13T12:53:02;29.00;52.41
76577;DHT22;65441;44.748;37.600;2023-07-13T12:55:43;28.76;53.00
76577;DHT22;65441;44.748;37.600;2023-07-13T12:58:14;28.90;51.95
76577;DHT22;65441;44.748;37.600;2023-07-13T13:00:51;28.84;50.91
76577;DHT22;65441;44.748;37.600;2023-07-13T13:03:26;28.76;52.41
76577;DHT22;65441;44.748;37.600;2023-07-13T13:06:03;28.69;53.21
76577;DHT22;65441;44.748;37.600;2023-07-13T13:08:34;28.32;50.81
76577;DHT22;65441;44.748;37.600;2023-07-13T13:11:04;28.28;52.49
76577;DHT22;65441;44.748;37.600;2023-07-13T13:13:32;27.94;55.56
76577;DHT22;65441;44.748;37.600;2023-07-13T13:16:04;28.18;54.41
76577;DHT22;65441;44.748;37.600;2023-07-13T13:18:37;28.05;56.36
76577;DHT22;65441;44.748;37.600;2023-07-13T13:21:10;28.09;55.90
76577;DHT22;65441;44.748;37.600;2023-07-13T13:23:38;28.08;55.97
76577;DHT22;65441;44.748;37.600;2023-07-13T13:26:11;28.16;57.16
76577;DHT22;65441;44.748;37.600;2023-07-13T13:28:40;28.24;57.44
76577;DHT22;65441;44.748;37.600;2023-07-13T13:31:11;28.02;56.38
76577;DHT22;65441;44.748;37.600;2023-07-13T13:33:46;27.86;58.40
76577;DHT22;65441;44.748;37.600;2023-07-13T13:36:17;27.99;56.08
76577;DHT22;65441;44.748;37.600;2023-07-13T13:38:46;28.01;57.29
76577;DHT22;65441;44.748;37.600;2023-07-13T13:41:17;28.08;57.34
76577;DHT22;65441;44.748;37.600;2023-07-13T13:43:47;28.03;56.13
76577;DHT22;65441;44.748;37.600;2023-07-13T13:46:18;27.96;57.04
76577;DHT22;65441;44.748;37.600;2023-07-13T13:48:47;27.90;57.05
76577;DHT22;65441;44.748;37.600;2023-07-13T13:51:18;27.91;56.61
76577;DHT22;65441;44.748;37.600;2023-07-13T13:53:48;27.98;56.09
76577;DHT22;65441;44.748;37.600;2023-07-13T13:56:20;27.89;56.86
76577;DHT22;65441;44.748;37.600;2023-07-13T13:58:48;27.83;55.39
76577;DHT22;65441;44.748;37.600;2023-07-13T14:01:18;27.80;55.94
76577;DHT22;65441;44.748;37.600;2023-07-13T14:03:47;27.55;56.17
76577;DHT22;65441;44.748;37.600;2023-07-13T14:06:18;27.46;57.45
76577;DHT22;65441;44.748;37.600;2023-07-13T14:08:46;27.31;57.47
76577;DHT22;65441;44.748;37.600;2023-07-13T14:11:18;27.30;57.41
76577;DHT22;65441;44.748;37.600;2023-07-13T14:13:49;27.15;57.65
76577;DHT22;65441;44.748;37.600;2023-07-13T14:16:19;27.12;55.62
76577;DHT22;65441;44.748;37.600;2023-07-13T14:18:48;27.24;58.22
76577;DHT22;65441;44.748;37.600;2023-07-13T14:21:18;27.16;55.78
76577;DHT22;65441;44.748;37.600;2023-07-13T14:23:47;27.21;56.00
76577;DHT22;65441;44.748;37.600;2023-07-13T14:26:19;27.15;56.99
76577;DHT22;65441;44.748;37.600;2023-07-13T14:28:50;26.99;58.47
76577;DHT22;65441;44.748;37.600;2023-07-13T14:31:20;26.97;57.79
76577;DHT22;65441;44.748;37.600;2023-07-13T14:33:49;27.04;57.32
76577;DHT22;65441;44.748;37.600;2023-07-13T14:36:29;26.93;57.74
76577;DHT22;65441;44.748;37.600;2023-07-13T14:38:59;26.78;57.62
76577;DHT22;65441;44.748;37.600;2023-07-13T14:41:29;26.65;58.15
76577;DHT22;65441;44.748;37.600;2023-07-13T14:43:57;26.68;59.57
76577;DHT22;65441;44.748;37.600;2023-07-13T14:46:29;26.77;59.25
76577;DHT22;65441;44.748;37.600;2023-07-13T14:49:02;26.84;59.35
76577;DHT22;65441;44.748;37.600;2023-07-13T14:51:31;26.73;58.33
76577;DHT22;65441;44.748;37.600;2023-07-13T14:54:02;26.62;58.82
76577;DHT22;65441;44.748;37.600;2023-07-13T14:56:32;26.55;59.01
76577;DHT22;65441;44.748;37.600;2023-07-13T14:59:00;26.57;59.85
76577;DHT22;65441;44.748;37.600;2023-07-13T15:01:37;26.38;60.25
76577;DHT22;65441;44.748;37.600;2023-07-13T15:04:06;26.41;60.54
76577;DHT22;65441;44.748;37.600;2023-07-13T15:06:53;26.52;61.34
76577;DHT22;65441;44.748;37.600;2023-07-13T15:09:21;26.39;60.80
76577;DHT22;65441;44.748;37.600;2023-07-13T15:11:52;26.33;60.93
76577;DHT22;65441;44.748;37.600;2023-07-13T15:14:20;26.30;60.44
76577;DHT22;65441;44.748;37.600;2023-07-13T15:16:50;26.38;60.93
76577;DHT22;65441;44.748;37.600;2023-07-13T15:19:20;26.21;61.43
76577;DHT22;65441;44.748;37.600;2023-07-13T15:21:50;26.10;61.69
76577;DHT22;65441;44.748;37.600;2023-07-13T15:24:18;26.10;62.23
76577;DHT22;65441;44.748;37.600;2023-07-13T15:26:47;26.06;62.42
76577;DHT22;65441;44.748;37.600;2023-07-13T15:29:17;25.86;62.98
76577;DHT22;65441;44.748;37.600;2023-07-13T15:31:46;25.84;63.59
76577;DHT22;65441;44.748;37.600;2023-07-13T15:34:15;25.67;63.81
76577;DHT22;65441;44.748;37.600;2023-07-13T15:36:44;25.54;65.23
76577;DHT22;65441;44.748;37.600;2023-07-13T15:39:14;25.53;65.36
76577;DHT22;65441;44.748;37.600;2023-07-13T15:41:44;25.54;65.05
76577;DHT22;65441;44.748;37.600;2023-07-13T15:44:25;25.53;65.55
76577;DHT22;65441;44.748;37.600;2023-07-13T15:46:54;25.48;65.80